Terminal Aerodrome Forecast
Issued by NWS Wilmington, OH

Home | Current Version | Previous Version | Text Only | Print | Product List | Glossary On
Versions: 1 2 3 4 5 6 7 8 9 10 11 12 13 14 15 16 17 18 19 20 21 22 23 24 25 26 27 28
413
FTUS41 KILN 251726
TAFDAY
TAF
KDAY 251726Z 2518/2618 27014G24KT P6SM SCT045
     FM260100 27007KT P6SM SCT100
     FM261500 27012G18KT P6SM SCT120=

USA.gov is the U.S. government's official web portal to all federal, state and local government web resources and services.